Terminal Aerodrome Forecast
Issued by NWS Upton, NY

Home | Current Version | Previous Version | Text Only | Print | Product List | Glossary On
Versions: 1 2 3 4 5 6 7 8 9 10 11 12 13 14 15 16 17 18 19 20 21 22 23 24 25 26 27 28 29 30 31 32 33
855
FTUS41 KOKX 271310 AAA
TAFEWR
TAF AMD
KEWR 271310Z 2713/2818 14005KT 3/4SM -RA BR OVC003 WS020/22035KT
     FM271600 21007KT 1SM -RA BR OVC005
     FM271800 22007KT 2SM BR OVC008
     FM272100 22006KT 5SM BR BKN020
     FM280300 19003KT 2SM -DZ BR OVC015
     FM281000 07003KT 1SM BR OVC005
     FM281500 06003KT 2SM BR OVC009=

USA.gov is the U.S. government's official web portal to all federal, state and local government web resources and services.